sensor_id;sensor_type;location;lat;lon;timestamp;temperature;humidity
35325;DHT22;35135;47.510;19.036;2023-05-07T00:02:06;23.20;54.70
35325;DHT22;35135;47.510;19.036;2023-05-07T00:04:32;23.20;54.50
35325;DHT22;35135;47.510;19.036;2023-05-07T00:07:02;23.20;54.90
35325;DHT22;35135;47.510;19.036;2023-05-07T00:09:28;23.20;54.80
35325;DHT22;35135;47.510;19.036;2023-05-07T00:11:54;23.20;54.80
35325;DHT22;35135;47.510;19.036;2023-05-07T00:14:19;23.20;54.70
35325;DHT22;35135;47.510;19.036;2023-05-07T00:16:45;23.10;54.80
35325;DHT22;35135;47.510;19.036;2023-05-07T00:19:11;23.20;55.40
35325;DHT22;35135;47.510;19.036;2023-05-07T00:21:37;23.20;55.00
35325;DHT22;35135;47.510;19.036;2023-05-07T00:24:02;23.10;54.50
35325;DHT22;35135;47.510;19.036;2023-05-07T00:26:28;23.20;54.80
35325;DHT22;35135;47.510;19.036;2023-05-07T00:28:54;23.20;55.00
35325;DHT22;35135;47.510;19.036;2023-05-07T00:31:20;23.10;55.00
35325;DHT22;35135;47.510;19.036;2023-05-07T00:33:45;23.10;55.00
35325;DHT22;35135;47.510;19.036;2023-05-07T00:36:12;23.10;55.30
35325;DHT22;35135;47.510;19.036;2023-05-07T00:38:37;23.10;55.40
35325;DHT22;35135;47.510;19.036;2023-05-07T00:41:03;23.10;55.30
35325;DHT22;35135;47.510;19.036;2023-05-07T00:43:29;23.00;55.40
35325;DHT22;35135;47.510;19.036;2023-05-07T00:45:55;23.00;55.20
35325;DHT22;35135;47.510;19.036;2023-05-07T00:48:21;23.10;55.50
35325;DHT22;35135;47.510;19.036;2023-05-07T00:50:47;23.10;55.40
35325;DHT22;35135;47.510;19.036;2023-05-07T00:53:13;23.00;55.10
35325;DHT22;35135;47.510;19.036;2023-05-07T00:55:39;23.10;55.20
35325;DHT22;35135;47.510;19.036;2023-05-07T00:58:06;23.10;55.30
35325;DHT22;35135;47.510;19.036;2023-05-07T01:00:32;23.10;55.10
35325;DHT22;35135;47.510;19.036;2023-05-07T01:02:58;23.20;55.30
35325;DHT22;35135;47.510;19.036;2023-05-07T01:05:24;23.20;55.00
35325;DHT22;35135;47.510;19.036;2023-05-07T01:07:52;23.10;54.90
35325;DHT22;35135;47.510;19.036;2023-05-07T01:10:19;23.10;54.90
35325;DHT22;35135;47.510;19.036;2023-05-07T01:12:45;23.20;55.00
35325;DHT22;35135;47.510;19.036;2023-05-07T01:15:12;23.20;55.00
35325;DHT22;35135;47.510;19.036;2023-05-07T01:17:40;23.10;55.10
35325;DHT22;35135;47.510;19.036;2023-05-07T01:20:07;23.20;54.70
35325;DHT22;35135;47.510;19.036;2023-05-07T01:22:38;23.20;55.20
35325;DHT22;35135;47.510;19.036;2023-05-07T01:25:04;23.20;55.20
35325;DHT22;35135;47.510;19.036;2023-05-07T01:27:30;23.20;54.80
35325;DHT22;35135;47.510;19.036;2023-05-07T01:29:56;23.30;54.70
35325;DHT22;35135;47.510;19.036;2023-05-07T01:32:35;23.20;54.80
35325;DHT22;35135;47.510;19.036;2023-05-07T01:35:05;23.20;54.30
35325;DHT22;35135;47.510;19.036;2023-05-07T01:37:33;23.20;54.40
35325;DHT22;35135;47.510;19.036;2023-05-07T01:39:59;23.20;54.40
35325;DHT22;35135;47.510;19.036;2023-05-07T01:42:26;23.20;54.50
35325;DHT22;35135;47.510;19.036;2023-05-07T01:44:52;23.10;54.60
35325;DHT22;35135;47.510;19.036;2023-05-07T01:47:18;23.10;54.80
35325;DHT22;35135;47.510;19.036;2023-05-07T01:49:44;23.10;54.90
35325;DHT22;35135;47.510;19.036;2023-05-07T01:52:10;23.10;54.80
35325;DHT22;35135;47.510;19.036;2023-05-07T01:54:37;23.00;54.90
35325;DHT22;35135;47.510;19.036;2023-05-07T01:57:02;23.00;54.60
35325;DHT22;35135;47.510;19.036;2023-05-07T01:59:28;23.00;54.60
35325;DHT22;35135;47.510;19.036;2023-05-07T02:01:54;23.00;54.80
35325;DHT22;35135;47.510;19.036;2023-05-07T02:04:19;23.00;54.90
35325;DHT22;35135;47.510;19.036;2023-05-07T02:06:45;23.00;54.90
35325;DHT22;35135;47.510;19.036;2023-05-07T02:09:11;23.00;54.80
35325;DHT22;35135;47.510;19.036;2023-05-07T02:11:37;23.00;54.90
35325;DHT22;35135;47.510;19.036;2023-05-07T02:14:03;23.00;55.00
35325;DHT22;35135;47.510;19.036;2023-05-07T02:16:28;23.00;54.80
35325;DHT22;35135;47.510;19.036;2023-05-07T02:18:54;23.00;54.90
35325;DHT22;35135;47.510;19.036;2023-05-07T02:21:20;23.00;55.00
35325;DHT22;35135;47.510;19.036;2023-05-07T02:23:45;23.00;54.80
35325;DHT22;35135;47.510;19.036;2023-05-07T02:26:11;23.00;54.90
35325;DHT22;35135;47.510;19.036;2023-05-07T02:28:37;22.90;55.00
35325;DHT22;35135;47.510;19.036;2023-05-07T02:31:05;22.90;54.90
35325;DHT22;35135;47.510;19.036;2023-05-07T02:33:31;22.90;54.90
35325;DHT22;35135;47.510;19.036;2023-05-07T02:36:06;22.90;54.90
35325;DHT22;35135;47.510;19.036;2023-05-07T02:38:32;22.90;55.00
35325;DHT22;35135;47.510;19.036;2023-05-07T02:40:58;22.90;55.10
35325;DHT22;35135;47.510;19.036;2023-05-07T02:43:23;22.90;55.10
35325;DHT22;35135;47.510;19.036;2023-05-07T02:45:49;22.90;54.90
35325;DHT22;35135;47.510;19.036;2023-05-07T02:48:15;22.80;54.80
35325;DHT22;35135;47.510;19.036;2023-05-07T02:50:41;22.80;54.80
35325;DHT22;35135;47.510;19.036;2023-05-07T02:53:06;22.80;54.90
35325;DHT22;35135;47.510;19.036;2023-05-07T02:55:32;22.80;54.90
35325;DHT22;35135;47.510;19.036;2023-05-07T02:57:57;22.80;55.60
35325;DHT22;35135;47.510;19.036;2023-05-07T03:00:23;22.90;54.60
35325;DHT22;35135;47.510;19.036;2023-05-07T03:02:49;22.90;54.70
35325;DHT22;35135;47.510;19.036;2023-05-07T03:05:15;22.80;54.60
35325;DHT22;35135;47.510;19.036;2023-05-07T03:07:40;22.80;54.70
35325;DHT22;35135;47.510;19.036;2023-05-07T03:10:10;22.80;54.80
35325;DHT22;35135;47.510;19.036;2023-05-07T03:12:36;22.80;54.90
35325;DHT22;35135;47.510;19.036;2023-05-07T03:15:01;22.80;54.70
35325;DHT22;35135;47.510;19.036;2023-05-07T03:17:27;22.80;54.50
35325;DHT22;35135;47.510;19.036;2023-05-07T03:19:53;22.80;54.80
35325;DHT22;35135;47.510;19.036;2023-05-07T03:22:18;22.70;54.80
35325;DHT22;35135;47.510;19.036;2023-05-07T03:24:44;22.80;55.00
35325;DHT22;35135;47.510;19.036;2023-05-07T03:27:10;22.70;54.60
35325;DHT22;35135;47.510;19.036;2023-05-07T03:29:35;22.70;54.60
35325;DHT22;35135;47.510;19.036;2023-05-07T03:32:01;22.70;54.70
35325;DHT22;35135;47.510;19.036;2023-05-07T03:34:27;22.70;55.20
35325;DHT22;35135;47.510;19.036;2023-05-07T03:36:52;22.70;55.20
35325;DHT22;35135;47.510;19.036;2023-05-07T03:39:18;22.70;55.00
35325;DHT22;35135;47.510;19.036;2023-05-07T03:41:43;22.80;55.40
35325;DHT22;35135;47.510;19.036;2023-05-07T03:44:09;22.80;54.80
35325;DHT22;35135;47.510;19.036;2023-05-07T03:46:35;22.80;54.50
35325;DHT22;35135;47.510;19.036;2023-05-07T03:49:01;22.80;54.70
35325;DHT22;35135;47.510;19.036;2023-05-07T03:51:26;22.80;54.70
35325;DHT22;35135;47.510;19.036;2023-05-07T03:53:52;22.80;54.70
35325;DHT22;35135;47.510;19.036;2023-05-07T03:56:19;22.80;54.90
35325;DHT22;35135;47.510;19.036;2023-05-07T03:58:45;22.80;54.70
35325;DHT22;35135;47.510;19.036;2023-05-07T04:01:11;22.70;54.80
35325;DHT22;35135;47.510;19.036;2023-05-07T04:03:36;22.70;55.00
35325;DHT22;35135;47.510;19.036;2023-05-07T04:06:02;22.70;54.80
35325;DHT22;35135;47.510;19.036;2023-05-07T04:08:28;22.70;54.70
35325;DHT22;35135;47.510;19.036;2023-05-07T04:10:57;22.70;55.00
35325;DHT22;35135;47.510;19.036;2023-05-07T04:13:24;22.70;55.00
35325;DHT22;35135;47.510;19.036;2023-05-07T04:15:50;22.70;55.00
35325;DHT22;35135;47.510;19.036;2023-05-07T04:18:16;22.70;54.90
35325;DHT22;35135;47.510;19.036;2023-05-07T04:20:42;22.70;54.90
35325;DHT22;35135;47.510;19.036;2023-05-07T04:23:08;22.70;54.90
35325;DHT22;35135;47.510;19.036;2023-05-07T04:25:34;22.70;54.90
35325;DHT22;35135;47.510;19.036;2023-05-07T04:27:59;22.70;55.00
35325;DHT22;35135;47.510;19.036;2023-05-07T04:30:25;22.70;55.00
35325;DHT22;35135;47.510;19.036;2023-05-07T04:32:52;22.70;55.20
35325;DHT22;35135;47.510;19.036;2023-05-07T04:35:18;22.70;55.10
35325;DHT22;35135;47.510;19.036;2023-05-07T04:37:44;22.70;55.20
35325;DHT22;35135;47.510;19.036;2023-05-07T04:40:10;22.70;55.40
35325;DHT22;35135;47.510;19.036;2023-05-07T04:42:36;22.60;55.50
35325;DHT22;35135;47.510;19.036;2023-05-07T04:45:02;22.60;55.50
35325;DHT22;35135;47.510;19.036;2023-05-07T04:47:28;22.70;55.40
35325;DHT22;35135;47.510;19.036;2023-05-07T04:49:53;22.60;55.40
35325;DHT22;35135;47.510;19.036;2023-05-07T04:52:19;22.70;56.00
35325;DHT22;35135;47.510;19.036;2023-05-07T04:54:45;22.70;55.40
35325;DHT22;35135;47.510;19.036;2023-05-07T04:57:11;22.70;55.20
35325;DHT22;35135;47.510;19.036;2023-05-07T04:59:37;22.80;55.30
35325;DHT22;35135;47.510;19.036;2023-05-07T05:02:02;22.80;55.10
35325;DHT22;35135;47.510;19.036;2023-05-07T05:04:29;22.90;54.90
35325;DHT22;35135;47.510;19.036;2023-05-07T05:06:55;22.90;54.70
35325;DHT22;35135;47.510;19.036;2023-05-07T05:09:21;22.90;54.40
35325;DHT22;35135;47.510;19.036;2023-05-07T05:11:47;23.00;54.30
35325;DHT22;35135;47.510;19.036;2023-05-07T05:14:13;23.00;54.00
35325;DHT22;35135;47.510;19.036;2023-05-07T05:16:38;23.00;54.00
35325;DHT22;35135;47.510;19.036;2023-05-07T05:19:04;23.00;54.10
35325;DHT22;35135;47.510;19.036;2023-05-07T05:21:31;23.00;54.30
35325;DHT22;35135;47.510;19.036;2023-05-07T05:23:57;22.90;54.50
35325;DHT22;35135;47.510;19.036;2023-05-07T05:26:23;22.90;54.40
35325;DHT22;35135;47.510;19.036;2023-05-07T05:28:49;23.00;54.40
35325;DHT22;35135;47.510;19.036;2023-05-07T05:31:16;23.00;54.20
35325;DHT22;35135;47.510;19.036;2023-05-07T05:33:41;23.00;54.30
35325;DHT22;35135;47.510;19.036;2023-05-07T05:36:09;23.00;54.30
35325;DHT22;35135;47.510;19.036;2023-05-07T05:38:35;23.00;54.50
35325;DHT22;35135;47.510;19.036;2023-05-07T05:41:01;23.00;54.30
35325;DHT22;35135;47.510;19.036;2023-05-07T05:43:27;23.00;54.40
35325;DHT22;35135;47.510;19.036;2023-05-07T05:45:52;23.00;54.00
35325;DHT22;35135;47.510;19.036;2023-05-07T05:48:18;23.10;54.00
35325;DHT22;35135;47.510;19.036;2023-05-07T05:50:44;23.20;53.90
35325;DHT22;35135;47.510;19.036;2023-05-07T05:53:09;23.20;53.70
35325;DHT22;35135;47.510;19.036;2023-05-07T05:55:35;23.30;53.40
35325;DHT22;35135;47.510;19.036;2023-05-07T05:58:01;23.30;53.30
35325;DHT22;35135;47.510;19.036;2023-05-07T06:00:27;23.40;53.30
35325;DHT22;35135;47.510;19.036;2023-05-07T06:02:53;23.40;53.30
35325;DHT22;35135;47.510;19.036;2023-05-07T06:05:19;23.40;53.10
35325;DHT22;35135;47.510;19.036;2023-05-07T06:07:44;23.50;53.00
35325;DHT22;35135;47.510;19.036;2023-05-07T06:10:10;23.50;52.70
35325;DHT22;35135;47.510;19.036;2023-05-07T06:12:36;23.50;52.90
35325;DHT22;35135;47.510;19.036;2023-05-07T06:15:03;23.60;52.90
35325;DHT22;35135;47.510;19.036;2023-05-07T06:17:28;23.60;52.80
35325;DHT22;35135;47.510;19.036;2023-05-07T06:19:54;23.60;52.80
35325;DHT22;35135;47.510;19.036;2023-05-07T06:22:20;23.60;52.80
35325;DHT22;35135;47.510;19.036;2023-05-07T06:24:46;23.70;52.90
35325;DHT22;35135;47.510;19.036;2023-05-07T06:27:12;23.60;52.90
35325;DHT22;35135;47.510;19.036;2023-05-07T06:29:37;23.70;53.00
35325;DHT22;35135;47.510;19.036;2023-05-07T06:32:10;23.70;53.00
35325;DHT22;35135;47.510;19.036;2023-05-07T06:34:38;23.70;53.10
35325;DHT22;35135;47.510;19.036;2023-05-07T06:37:07;23.70;52.90
35325;DHT22;35135;47.510;19.036;2023-05-07T06:39:33;23.70;53.10
35325;DHT22;35135;47.510;19.036;2023-05-07T06:42:00;23.80;53.20
35325;DHT22;35135;47.510;19.036;2023-05-07T06:44:27;23.80;53.10
35325;DHT22;35135;47.510;19.036;2023-05-07T06:46:52;23.80;53.10
35325;DHT22;35135;47.510;19.036;2023-05-07T06:49:18;23.80;53.10
35325;DHT22;35135;47.510;19.036;2023-05-07T06:51:44;23.80;53.20
35325;DHT22;35135;47.510;19.036;2023-05-07T06:54:10;23.80;53.20
35325;DHT22;35135;47.510;19.036;2023-05-07T06:56:35;23.80;53.10
35325;DHT22;35135;47.510;19.036;2023-05-07T06:59:02;23.90;53.20
35325;DHT22;35135;47.510;19.036;2023-05-07T07:01:28;23.90;53.50
35325;DHT22;35135;47.510;19.036;2023-05-07T07:03:54;23.90;53.70
35325;DHT22;35135;47.510;19.036;2023-05-07T07:06:20;23.90;53.30
35325;DHT22;35135;47.510;19.036;2023-05-07T07:08:45;24.00;53.50
35325;DHT22;35135;47.510;19.036;2023-05-07T07:11:11;24.00;53.90
35325;DHT22;35135;47.510;19.036;2023-05-07T07:13:37;24.00;53.90
35325;DHT22;35135;47.510;19.036;2023-05-07T07:16:03;24.00;53.90
35325;DHT22;35135;47.510;19.036;2023-05-07T07:18:29;24.00;53.30
35325;DHT22;35135;47.510;19.036;2023-05-07T07:20:54;24.00;53.20
35325;DHT22;35135;47.510;19.036;2023-05-07T07:23:20;24.00;53.50
35325;DHT22;35135;47.510;19.036;2023-05-07T07:25:46;24.00;53.30
35325;DHT22;35135;47.510;19.036;2023-05-07T07:28:12;24.00;53.30
35325;DHT22;35135;47.510;19.036;2023-05-07T07:30:38;24.00;53.10
35325;DHT22;35135;47.510;19.036;2023-05-07T07:33:04;24.00;53.00
35325;DHT22;35135;47.510;19.036;2023-05-07T07:35:33;24.00;52.90
35325;DHT22;35135;47.510;19.036;2023-05-07T07:37:59;24.00;52.90
35325;DHT22;35135;47.510;19.036;2023-05-07T07:40:25;24.00;52.80
35325;DHT22;35135;47.510;19.036;2023-05-07T07:42:52;24.00;52.70
35325;DHT22;35135;47.510;19.036;2023-05-07T07:45:18;24.00;52.10
35325;DHT22;35135;47.510;19.036;2023-05-07T07:47:44;24.00;52.30
35325;DHT22;35135;47.510;19.036;2023-05-07T07:50:10;24.00;52.10
35325;DHT22;35135;47.510;19.036;2023-05-07T07:52:36;24.10;51.90
35325;DHT22;35135;47.510;19.036;2023-05-07T07:55:02;24.10;52.10
35325;DHT22;35135;47.510;19.036;2023-05-07T07:57:28;24.10;51.90
35325;DHT22;35135;47.510;19.036;2023-05-07T07:59:54;24.10;52.00
35325;DHT22;35135;47.510;19.036;2023-05-07T08:02:20;24.10;51.90
35325;DHT22;35135;47.510;19.036;2023-05-07T08:04:45;24.10;51.70
35325;DHT22;35135;47.510;19.036;2023-05-07T08:07:11;24.10;51.30
35325;DHT22;35135;47.510;19.036;2023-05-07T08:09:38;24.10;51.00
35325;DHT22;35135;47.510;19.036;2023-05-07T08:12:05;24.10;50.80
35325;DHT22;35135;47.510;19.036;2023-05-07T08:14:30;24.10;51.00
35325;DHT22;35135;47.510;19.036;2023-05-07T08:16:56;24.10;51.10
35325;DHT22;35135;47.510;19.036;2023-05-07T08:19:22;24.10;51.20
35325;DHT22;35135;47.510;19.036;2023-05-07T08:21:48;24.10;51.10
35325;DHT22;35135;47.510;19.036;2023-05-07T08:24:14;24.10;51.20
35325;DHT22;35135;47.510;19.036;2023-05-07T08:26:41;24.10;51.20
35325;DHT22;35135;47.510;19.036;2023-05-07T08:29:07;24.10;51.10
35325;DHT22;35135;47.510;19.036;2023-05-07T08:31:33;24.10;50.70
35325;DHT22;35135;47.510;19.036;2023-05-07T08:33:59;24.10;50.30
35325;DHT22;35135;47.510;19.036;2023-05-07T08:36:25;24.00;50.80
35325;DHT22;35135;47.510;19.036;2023-05-07T08:38:51;24.00;51.30
35325;DHT22;35135;47.510;19.036;2023-05-07T08:41:17;24.00;51.10
35325;DHT22;35135;47.510;19.036;2023-05-07T08:43:47;23.90;50.80
35325;DHT22;35135;47.510;19.036;2023-05-07T08:46:19;23.90;51.50
35325;DHT22;35135;47.510;19.036;2023-05-07T08:48:45;23.90;51.40
35325;DHT22;35135;47.510;19.036;2023-05-07T08:51:15;23.90;51.50
35325;DHT22;35135;47.510;19.036;2023-05-07T08:53:41;24.00;51.80
35325;DHT22;35135;47.510;19.036;2023-05-07T08:56:08;24.00;51.70
35325;DHT22;35135;47.510;19.036;2023-05-07T08:58:34;24.00;51.70
35325;DHT22;35135;47.510;19.036;2023-05-07T09:01:09;24.00;51.70
35325;DHT22;35135;47.510;19.036;2023-05-07T09:03:37;24.10;51.30
35325;DHT22;35135;47.510;19.036;2023-05-07T09:06:03;24.10;51.50
35325;DHT22;35135;47.510;19.036;2023-05-07T09:08:29;24.10;50.30
35325;DHT22;35135;47.510;19.036;2023-05-07T09:10:55;24.10;50.70
35325;DHT22;35135;47.510;19.036;2023-05-07T09:13:20;24.10;50.90
35325;DHT22;35135;47.510;19.036;2023-05-07T09:15:46;24.10;50.40
35325;DHT22;35135;47.510;19.036;2023-05-07T09:18:12;24.10;50.40
35325;DHT22;35135;47.510;19.036;2023-05-07T09:20:40;24.10;50.70
35325;DHT22;35135;47.510;19.036;2023-05-07T09:23:07;24.10;51.30
35325;DHT22;35135;47.510;19.036;2023-05-07T09:25:35;24.10;51.70
35325;DHT22;35135;47.510;19.036;2023-05-07T09:28:01;24.10;52.10
35325;DHT22;35135;47.510;19.036;2023-05-07T09:30:29;24.10;51.30
35325;DHT22;35135;47.510;19.036;2023-05-07T09:32:56;24.10;51.80
35325;DHT22;35135;47.510;19.036;2023-05-07T09:35:21;24.10;51.30
35325;DHT22;35135;47.510;19.036;2023-05-07T09:37:49;24.10;51.80
35325;DHT22;35135;47.510;19.036;2023-05-07T09:40:29;24.20;52.10
35325;DHT22;35135;47.510;19.036;2023-05-07T09:42:56;24.10;52.10
35325;DHT22;35135;47.510;19.036;2023-05-07T09:45:28;24.20;52.00
35325;DHT22;35135;47.510;19.036;2023-05-07T09:47:56;24.10;52.20
35325;DHT22;35135;47.510;19.036;2023-05-07T09:50:26;24.20;52.20
35325;DHT22;35135;47.510;19.036;2023-05-07T09:52:54;24.10;52.10
35325;DHT22;35135;47.510;19.036;2023-05-07T09:55:21;24.20;52.20
35325;DHT22;35135;47.510;19.036;2023-05-07T09:57:50;24.20;52.10
35325;DHT22;35135;47.510;19.036;2023-05-07T10:00:18;24.20;51.00
35325;DHT22;35135;47.510;19.036;2023-05-07T10:02:46;24.10;51.30
35325;DHT22;35135;47.510;19.036;2023-05-07T10:05:14;24.20;51.60
35325;DHT22;35135;47.510;19.036;2023-05-07T10:07:41;24.10;51.80
35325;DHT22;35135;47.510;19.036;2023-05-07T10:10:07;24.10;51.80
35325;DHT22;35135;47.510;19.036;2023-05-07T10:12:33;24.20;51.90
35325;DHT22;35135;47.510;19.036;2023-05-07T10:15:10;24.20;51.90
35325;DHT22;35135;47.510;19.036;2023-05-07T10:17:37;24.20;51.50
35325;DHT22;35135;47.510;19.036;2023-05-07T10:20:04;24.20;51.40
35325;DHT22;35135;47.510;19.036;2023-05-07T10:22:37;24.20;51.40
35325;DHT22;35135;47.510;19.036;2023-05-07T10:25:08;24.10;51.40
35325;DHT22;35135;47.510;19.036;2023-05-07T10:27:39;24.20;51.40
35325;DHT22;35135;47.510;19.036;2023-05-07T10:30:15;24.20;51.40
35325;DHT22;35135;47.510;19.036;2023-05-07T10:32:48;24.20;51.40
35325;DHT22;35135;47.510;19.036;2023-05-07T10:35:21;24.10;51.40
35325;DHT22;35135;47.510;19.036;2023-05-07T10:37:48;24.20;51.40
35325;DHT22;35135;47.510;19.036;2023-05-07T10:40:14;24.20;51.50
35325;DHT22;35135;47.510;19.036;2023-05-07T10:43:04;24.20;51.70
35325;DHT22;35135;47.510;19.036;2023-05-07T10:45:31;24.20;52.00
35325;DHT22;35135;47.510;19.036;2023-05-07T10:48:06;24.20;51.90
35325;DHT22;35135;47.510;19.036;2023-05-07T10:50:32;24.20;51.70
35325;DHT22;35135;47.510;19.036;2023-05-07T10:55:43;24.20;51.60
35325;DHT22;35135;47.510;19.036;2023-05-07T11:00:47;24.20;52.10
35325;DHT22;35135;47.510;19.036;2023-05-07T11:03:13;24.20;52.20
35325;DHT22;35135;47.510;19.036;2023-05-07T11:05:41;24.20;52.20
35325;DHT22;35135;47.510;19.036;2023-05-07T11:08:07;24.20;52.30
35325;DHT22;35135;47.510;19.036;2023-05-07T11:10:55;24.20;52.30
35325;DHT22;35135;47.510;19.036;2023-05-07T11:13:41;24.20;52.10
35325;DHT22;35135;47.510;19.036;2023-05-07T11:16:18;24.20;52.00
35325;DHT22;35135;47.510;19.036;2023-05-07T11:18:52;24.20;51.90
35325;DHT22;35135;47.510;19.036;2023-05-07T11:21:38;24.20;51.90
35325;DHT22;35135;47.510;19.036;2023-05-07T11:24:05;24.20;51.80
35325;DHT22;35135;47.510;19.036;2023-05-07T11:26:59;24.20;51.40
35325;DHT22;35135;47.510;19.036;2023-05-07T11:29:25;24.20;51.70
35325;DHT22;35135;47.510;19.036;2023-05-07T11:31:52;24.20;51.60
35325;DHT22;35135;47.510;19.036;2023-05-07T11:34:22;24.20;51.70
35325;DHT22;35135;47.510;19.036;2023-05-07T11:36:49;24.20;50.80
35325;DHT22;35135;47.510;19.036;2023-05-07T11:39:25;24.20;50.70
35325;DHT22;35135;47.510;19.036;2023-05-07T11:41:51;24.20;50.20
35325;DHT22;35135;47.510;19.036;2023-05-07T11:44:17;24.20;50.40
35325;DHT22;35135;47.510;19.036;2023-05-07T11:46:44;24.20;50.60
35325;DHT22;35135;47.510;19.036;2023-05-07T11:49:10;24.20;51.40
35325;DHT22;35135;47.510;19.036;2023-05-07T11:51:36;24.20;51.60
35325;DHT22;35135;47.510;19.036;2023-05-07T11:54:04;24.20;51.60
35325;DHT22;35135;47.510;19.036;2023-05-07T11:56:34;24.20;51.50
35325;DHT22;35135;47.510;19.036;2023-05-07T11:59:00;24.20;51.20
35325;DHT22;35135;47.510;19.036;2023-05-07T12:01:26;24.20;51.20
35325;DHT22;35135;47.510;19.036;2023-05-07T12:03:52;24.20;51.20
35325;DHT22;35135;47.510;19.036;2023-05-07T12:06:18;24.30;50.50
35325;DHT22;35135;47.510;19.036;2023-05-07T12:08:45;24.20;50.80
35325;DHT22;35135;47.510;19.036;2023-05-07T12:11:16;24.20;50.80
35325;DHT22;35135;47.510;19.036;2023-05-07T12:13:43;24.30;51.30
35325;DHT22;35135;47.510;19.036;2023-05-07T12:16:09;24.30;51.00
35325;DHT22;35135;47.510;19.036;2023-05-07T12:18:36;24.20;50.60
35325;DHT22;35135;47.510;19.036;2023-05-07T12:21:03;24.20;50.60
35325;DHT22;35135;47.510;19.036;2023-05-07T12:23:29;24.30;50.70
35325;DHT22;35135;47.510;19.036;2023-05-07T12:25:55;24.30;50.60
35325;DHT22;35135;47.510;19.036;2023-05-07T12:28:21;24.30;50.90
35325;DHT22;35135;47.510;19.036;2023-05-07T12:30:48;24.30;50.60
35325;DHT22;35135;47.510;19.036;2023-05-07T12:33:23;24.30;50.50
35325;DHT22;35135;47.510;19.036;2023-05-07T12:35:49;24.30;50.30
35325;DHT22;35135;47.510;19.036;2023-05-07T12:38:16;24.30;50.50
35325;DHT22;35135;47.510;19.036;2023-05-07T12:40:43;24.30;50.90
35325;DHT22;35135;47.510;19.036;2023-05-07T12:45:43;24.30;51.00
35325;DHT22;35135;47.510;19.036;2023-05-07T12:48:10;24.30;51.10
35325;DHT22;35135;47.510;19.036;2023-05-07T12:50:36;24.30;51.40
35325;DHT22;35135;47.510;19.036;2023-05-07T12:53:05;24.30;51.10
35325;DHT22;35135;47.510;19.036;2023-05-07T12:55:32;24.30;51.00
35325;DHT22;35135;47.510;19.036;2023-05-07T12:58:01;24.30;51.10
35325;DHT22;35135;47.510;19.036;2023-05-07T13:00:34;24.30;51.10
35325;DHT22;35135;47.510;19.036;2023-05-07T13:03:00;24.30;51.20
35325;DHT22;35135;47.510;19.036;2023-05-07T13:05:26;24.30;51.20
35325;DHT22;35135;47.510;19.036;2023-05-07T13:07:55;24.30;51.40
35325;DHT22;35135;47.510;19.036;2023-05-07T13:10:22;24.30;51.40
35325;DHT22;35135;47.510;19.036;2023-05-07T13:12:49;24.30;51.30
35325;DHT22;35135;47.510;19.036;2023-05-07T13:15:14;24.30;51.40
35325;DHT22;35135;47.510;19.036;2023-05-07T13:17:40;24.30;51.50
35325;DHT22;35135;47.510;19.036;2023-05-07T13:20:06;24.30;51.00
35325;DHT22;35135;47.510;19.036;2023-05-07T13:22:33;24.30;50.90
35325;DHT22;35135;47.510;19.036;2023-05-07T13:24:59;24.30;51.00
35325;DHT22;35135;47.510;19.036;2023-05-07T13:27:25;24.30;50.90
35325;DHT22;35135;47.510;19.036;2023-05-07T13:29:51;24.30;51.00
35325;DHT22;35135;47.510;19.036;2023-05-07T13:32:17;24.30;51.10
35325;DHT22;35135;47.510;19.036;2023-05-07T13:34:42;24.30;51.20
35325;DHT22;35135;47.510;19.036;2023-05-07T13:37:08;24.40;51.00
35325;DHT22;35135;47.510;19.036;2023-05-07T13:39:34;24.40;51.10
35325;DHT22;35135;47.510;19.036;2023-05-07T13:42:00;24.30;51.10
35325;DHT22;35135;47.510;19.036;2023-05-07T13:44:26;24.40;50.90
35325;DHT22;35135;47.510;19.036;2023-05-07T13:46:52;24.40;50.80
35325;DHT22;35135;47.510;19.036;2023-05-07T13:49:17;24.40;50.70
35325;DHT22;35135;47.510;19.036;2023-05-07T13:51:43;24.40;50.90
35325;DHT22;35135;47.510;19.036;2023-05-07T13:54:09;24.30;51.10
35325;DHT22;35135;47.510;19.036;2023-05-07T13:56:34;24.40;51.20
35325;DHT22;35135;47.510;19.036;2023-05-07T13:59:00;24.30;51.20
35325;DHT22;35135;47.510;19.036;2023-05-07T14:01:26;24.40;51.20
35325;DHT22;35135;47.510;19.036;2023-05-07T14:03:52;24.40;51.10
35325;DHT22;35135;47.510;19.036;2023-05-07T14:06:18;24.40;50.90
35325;DHT22;35135;47.510;19.036;2023-05-07T14:08:43;24.40;50.40
35325;DHT22;35135;47.510;19.036;2023-05-07T14:11:09;24.40;50.30
35325;DHT22;35135;47.510;19.036;2023-05-07T14:13:35;24.40;50.80
35325;DHT22;35135;47.510;19.036;2023-05-07T14:16:00;24.40;50.90
35325;DHT22;35135;47.510;19.036;2023-05-07T14:18:26;24.40;50.70
35325;DHT22;35135;47.510;19.036;2023-05-07T14:20:54;24.40;50.40
35325;DHT22;35135;47.510;19.036;2023-05-07T14:23:20;24.40;50.30
35325;DHT22;35135;47.510;19.036;2023-05-07T14:25:50;24.40;50.20
35325;DHT22;35135;47.510;19.036;2023-05-07T14:28:16;24.40;49.60
35325;DHT22;35135;47.510;19.036;2023-05-07T14:30:42;24.40;50.40
35325;DHT22;35135;47.510;19.036;2023-05-07T14:33:08;24.40;49.60
35325;DHT22;35135;47.510;19.036;2023-05-07T14:35:33;24.40;49.40
35325;DHT22;35135;47.510;19.036;2023-05-07T14:37:59;24.40;49.70
35325;DHT22;35135;47.510;19.036;2023-05-07T14:40:25;24.40;49.30
35325;DHT22;35135;47.510;19.036;2023-05-07T14:42:50;24.40;49.80
35325;DHT22;35135;47.510;19.036;2023-05-07T14:45:16;24.40;49.80
35325;DHT22;35135;47.510;19.036;2023-05-07T14:47:42;24.40;49.20
35325;DHT22;35135;47.510;19.036;2023-05-07T14:50:08;24.40;50.00
35325;DHT22;35135;47.510;19.036;2023-05-07T14:52:34;24.40;48.50
35325;DHT22;35135;47.510;19.036;2023-05-07T14:54:59;24.40;49.90
35325;DHT22;35135;47.510;19.036;2023-05-07T14:57:25;24.40;49.50
35325;DHT22;35135;47.510;19.036;2023-05-07T14:59:51;24.40;48.90
35325;DHT22;35135;47.510;19.036;2023-05-07T15:02:17;24.40;49.90
35325;DHT22;35135;47.510;19.036;2023-05-07T15:04:43;24.50;50.30
35325;DHT22;35135;47.510;19.036;2023-05-07T15:07:13;24.50;50.20
35325;DHT22;35135;47.510;19.036;2023-05-07T15:09:43;24.50;49.40
35325;DHT22;35135;47.510;19.036;2023-05-07T15:12:08;24.50;50.40
35325;DHT22;35135;47.510;19.036;2023-05-07T15:14:34;24.40;51.30
35325;DHT22;35135;47.510;19.036;2023-05-07T15:17:00;24.40;50.30
35325;DHT22;35135;47.510;19.036;2023-05-07T15:19:26;24.40;50.60
35325;DHT22;35135;47.510;19.036;2023-05-07T15:21:58;24.40;50.20